Time;durP1;ratioP1;P1;durP2;ratioP2;P2;SDS_P1;SDS_P2;PMS_P1;PMS_P2;Temp;Humidity;BMP_temperature;BMP_pressure;BME280_temperature;BME280_humidity;BME280_pressure;Samples;Min_cycle;Max_cycle;Signal;HPM_P1;HPM_P2
2022/06/03 00:01:23;;;;;;;;;;;;;;;14.25;100.00;98781.13;1655530;85;24458;-84
2022/06/03 00:03:51;;;;;;;;;;;;;;;14.23;100.00;98781.28;1656068;86;20326;-83
2022/06/03 00:09:27;;;;;;;;;;;;;;;14.03;100.00;98779.83;1655424;86;21937;-89
2022/06/03 00:11:58;;;;;;;;;;;;;;;13.94;100.00;98775.30;1657910;86;26100;-86
2022/06/03 00:14:30;;;;;;;;;;;;;;;13.83;100.00;98782.23;1655808;86;24498;-85
2022/06/03 00:17:00;;;;;;;;;;;;;;;13.90;100.00;98783.08;1657024;85;20229;-89
2022/06/03 00:19:27;;;;;;;;;;;;;;;13.91;100.00;98775.55;1657245;86;25083;-85
2022/06/03 00:22:08;;;;;;;;;;;;;;;13.73;100.00;98772.07;1655379;86;22048;-88
2022/06/03 00:24:39;;;;;;;;;;;;;;;13.71;100.00;98778.39;1656033;86;25438;-88
2022/06/03 00:27:11;;;;;;;;;;;;;;;13.67;100.00;98774.33;1657108;86;24591;-85
2022/06/03 00:29:42;;;;;;;;;;;;;;;13.66;100.00;98773.97;1657560;85;20249;-84
2022/06/03 00:32:10;;;;;;;;;;;;;;;13.76;100.00;98769.66;1654814;86;25101;-83
2022/06/03 00:34:57;;;;;;;;;;;;;;;13.81;100.00;98769.67;1656651;85;21960;-84
2022/06/03 00:37:26;;;;;;;;;;;;;;;13.83;100.00;98769.56;1656603;86;26062;-85
2022/06/03 00:40:00;;;;;;;;;;;;;;;13.75;100.00;98771.45;1657088;86;24732;-85
2022/06/03 00:42:34;;;;;;;;;;;;;;;13.60;100.00;98770.48;1656860;86;20301;-85
2022/06/03 00:45:14;;;;;;;;;;;;;;;13.33;100.00;98774.74;1656224;86;25165;-83
2022/06/03 00:47:44;;;;;;;;;;;;;;;13.15;100.00;98776.11;1629292;87;22124;-82
2022/06/03 00:50:18;;;;;;;;;;;;;;;13.20;100.00;98775.33;1602228;88;26010;-83
2022/06/03 00:53:06;;;;;;;;;;;;;;;13.32;100.00;98773.06;1609321;87;24416;-88
2022/06/03 00:55:34;;;;;;;;;;;;;;;13.39;100.00;98771.66;1614012;87;20305;-88
2022/06/03 00:58:18;;;;;;;;;;;;;;;13.22;100.00;98771.61;1610170;88;24959;-89
2022/06/03 01:01:07;;;;;;;;;;;;;;;13.02;100.00;98764.83;1612983;87;22058;-86
2022/06/03 01:03:35;;;;;;;;;;;;;;;13.02;100.00;98768.77;1608994;87;26773;-86
2022/06/03 01:06:20;;;;;;;;;;;;;;;13.10;100.00;98769.02;1614476;88;24522;-86
2022/06/03 01:08:50;;;;;;;;;;;;;;;13.04;100.00;98770.31;1612998;87;20230;-85
2022/06/03 01:11:19;;;;;;;;;;;;;;;13.11;100.00;98775.48;1616356;87;25824;-84
2022/06/03 01:13:54;;;;;;;;;;;;;;;13.21;100.00;98776.97;1610825;88;22650;-84
2022/06/03 01:16:35;;;;;;;;;;;;;;;13.18;100.00;98771.48;1612854;88;26137;-84
2022/06/03 01:19:04;;;;;;;;;;;;;;;12.92;100.00;98758.95;1612744;87;25143;-88
2022/06/03 01:21:41;;;;;;;;;;;;;;;12.88;100.00;98780.28;1612022;87;20539;-88
2022/06/03 01:24:22;;;;;;;;;;;;;;;12.83;100.00;98777.16;1610175;88;24997;-85
2022/06/03 01:27:09;;;;;;;;;;;;;;;12.73;100.00;98779.63;1609593;88;22278;-84
2022/06/03 01:29:38;;;;;;;;;;;;;;;12.57;100.00;98779.91;1614323;87;26112;-84
2022/06/03 01:32:05;;;;;;;;;;;;;;;12.40;100.00;98782.91;1615056;87;24439;-83
2022/06/03 01:34:40;;;;;;;;;;;;;;;12.48;100.00;98785.00;1609374;87;20530;-83
2022/06/03 01:37:24;;;;;;;;;;;;;;;12.64;100.00;98786.88;1609784;87;25136;-83
2022/06/03 01:40:11;;;;;;;;;;;;;;;12.67;100.00;98787.95;1610981;87;21984;-88
2022/06/03 01:42:55;;;;;;;;;;;;;;;12.70;100.00;98782.50;1614027;87;26022;-84
2022/06/03 01:45:40;;;;;;;;;;;;;;;12.78;100.00;98784.55;1611299;87;23899;-88
2022/06/03 01:48:08;;;;;;;;;;;;;;;12.84;100.00;98790.66;1609439;87;20316;-84
2022/06/03 01:50:56;;;;;;;;;;;;;;;12.84;100.00;98791.50;1609609;88;24414;-84
2022/06/03 01:53:37;;;;;;;;;;;;;;;12.84;100.00;98786.72;1626981;86;21987;-85
2022/06/03 01:56:19;;;;;;;;;;;;;;;12.82;100.00;98786.02;1630814;86;26098;-89
2022/06/03 01:58:52;;;;;;;;;;;;;;;12.83;100.00;98781.94;1661919;84;24502;-84
2022/06/03 02:01:37;;;;;;;;;;;;;;;12.84;100.00;98784.94;1660975;86;20234;-89
2022/06/03 02:04:08;;;;;;;;;;;;;;;12.86;100.00;98785.67;1661097;84;24996;-87
2022/06/03 02:06:47;;;;;;;;;;;;;;;12.87;100.00;98787.83;1661227;84;21984;-88
2022/06/03 02:09:23;;;;;;;;;;;;;;;12.82;100.00;98784.70;1660288;84;25976;-88
2022/06/03 02:11:54;;;;;;;;;;;;;;;12.77;100.00;98781.08;1661363;84;24415;-86
2022/06/03 02:14:29;;;;;;;;;;;;;;;12.71;100.00;98771.02;1661035;84;20223;-86
2022/06/03 02:17:09;;;;;;;;;;;;;;;12.68;100.00;98776.50;1662346;85;25030;-84
2022/06/03 02:19:54;;;;;;;;;;;;;;;12.58;100.00;98784.22;1665540;84;22077;-84
2022/06/03 02:22:32;;;;;;;;;;;;;;;12.32;100.00;98793.61;1638507;86;22104;-84
2022/06/03 02:25:10;;;;;;;;;;;;;;;12.08;100.00;98787.82;1634239;84;24522;-84
2022/06/03 02:27:50;;;;;;;;;;;;;;;11.87;100.00;98780.14;1660367;84;20234;-86
2022/06/03 02:30:34;;;;;;;;;;;;;;;11.80;100.00;98776.27;1658761;84;25005;-84
2022/06/03 02:33:05;;;;;;;;;;;;;;;11.86;100.00;98779.77;1660988;84;22179;-86
2022/06/03 02:35:52;;;;;;;;;;;;;;;12.03;100.00;98775.50;1662252;85;26214;-83
2022/06/03 02:38:20;;;;;;;;;;;;;;;12.16;100.00;98784.67;1659651;84;25210;-84
2022/06/03 02:40:48;;;;;;;;;;;;;;;12.23;100.00;98782.42;1658984;85;20263;-88
2022/06/03 02:43:34;;;;;;;;;;;;;;;12.27;100.00;98786.53;1662033;84;25754;-84
2022/06/03 02:46:15;;;;;;;;;;;;;;;12.21;100.00;98780.41;1662046;84;22812;-88
2022/06/03 02:48:56;;;;;;;;;;;;;;;12.04;100.00;98773.25;1659088;85;26195;-83
2022/06/03 02:51:28;;;;;;;;;;;;;;;12.11;100.00;98775.79;1661338;84;24456;-85
2022/06/03 02:53:59;;;;;;;;;;;;;;;12.18;100.00;98779.30;1629906;86;20291;-85
2022/06/03 02:56:28;;;;;;;;;;;;;;;12.02;100.00;98778.23;1633606;86;25108;-88
2022/06/03 02:59:07;;;;;;;;;;;;;;;11.89;100.00;98773.48;1632815;86;22026;-88
2022/06/03 03:01:34;;;;;;;;;;;;;;;11.77;100.00;98776.95;1630222;86;26022;-84
2022/06/03 03:04:05;;;;;;;;;;;;;;;11.80;100.00;98780.20;1631767;86;24465;-84
2022/06/03 03:06:33;;;;;;;;;;;;;;;11.82;100.00;98782.25;1610477;86;20264;-88
2022/06/03 03:09:01;;;;;;;;;;;;;;;11.83;100.00;98785.72;1633471;86;25001;-88
2022/06/03 03:11:29;;;;;;;;;;;;;;;11.89;100.00;98783.98;1633620;86;22047;-89
2022/06/03 03:13:57;;;;;;;;;;;;;;;12.02;100.00;98788.72;1634409;86;26689;-84
2022/06/03 03:16:31;;;;;;;;;;;;;;;12.13;100.00;98792.27;1633709;86;24427;-83
2022/06/03 03:18:59;;;;;;;;;;;;;;;12.22;100.00;98796.52;1581998;89;20678;-83
2022/06/03 03:21:26;;;;;;;;;;;;;;;12.28;100.00;98789.50;1630557;86;25683;-88
2022/06/03 03:24:11;;;;;;;;;;;;;;;12.34;100.00;98786.44;1633770;86;22081;-85
2022/06/03 03:26:54;;;;;;;;;;;;;;;12.34;100.00;98787.28;1633707;86;25971;-88
2022/06/03 03:29:37;;;;;;;;;;;;;;;12.26;100.00;98791.41;1633517;86;25158;-84
2022/06/03 03:32:21;;;;;;;;;;;;;;;12.06;100.00;98784.92;1633320;86;20628;-85
2022/06/03 03:34:55;;;;;;;;;;;;;;;12.00;100.00;98790.13;1633416;86;25043;-86
2022/06/03 03:37:26;;;;;;;;;;;;;;;12.18;100.00;98798.50;1633506;88;22656;-86
2022/06/03 03:40:02;;;;;;;4.50;3.00;;;;;;;12.50;100.00;98802.30;1608679;86;227906;-88
2022/06/03 03:42:33;;;;;;;;;;;;;;;12.86;100.00;98801.44;1625876;86;79120;-88
2022/06/03 03:45:19;;;;;;;;;;;;;;;13.22;100.00;98795.73;1625738;86;203373;-89
2022/06/03 03:48:03;;;;;;;;;;;;;;;13.54;100.00;98800.72;1635172;86;25830;-88
2022/06/03 03:50:37;;;;;;;;;;;;;;;13.86;100.00;98801.35;1633972;86;21934;-83
2022/06/03 03:53:07;;;;;;;;;;;;;;;14.15;100.00;98809.98;1638959;86;26287;-85
2022/06/03 03:55:38;;;;;;;;;;;;;;;14.33;100.00;98809.50;1660728;86;24545;-86
2022/06/03 03:58:14;;;;;;;;;;;;;;;14.49;100.00;98812.14;1634932;86;20396;-86
2022/06/03 04:00:42;;;;;;;;;;;;;;;14.61;100.00;98811.17;1655614;86;25070;-85
2022/06/03 04:03:22;;;;;;;;;;;;;;;14.76;100.00;98806.94;1656510;86;22092;-86
2022/06/03 04:05:58;;;;;;;;;;;;;;;14.86;100.00;98817.08;1655763;86;26044;-86
2022/06/03 04:08:32;;;;;;;;;;;;;;;14.88;100.00;98815.16;1657964;86;24649;-86
2022/06/03 04:11:18;;;;;;;;;;;;;;;14.82;100.00;98820.93;1656097;86;20294;-85
2022/06/03 04:13:55;;;;;;;;;;;;;;;14.86;100.00;98821.03;1654479;86;25858;-84
2022/06/03 04:16:32;;;;;;;;;;;;;;;15.13;100.00;98820.57;1657460;86;22001;-85
2022/06/03 04:19:00;;;;;;;;;;;;;;;15.40;100.00;98814.33;1655569;86;26176;-86
2022/06/03 04:21:45;;;;;;;;;;;;;;;15.54;100.00;98818.50;1653583;86;24515;-86
2022/06/03 04:24:29;;;;;;;;;;;;;;;15.58;100.00;98819.91;1658247;86;20207;-85
2022/06/03 04:27:00;;;;;;;;;;;;;;;15.46;100.00;98817.78;1657343;86;25133;-85
2022/06/03 04:29:46;;;;;;;;;;;;;;;15.41;100.00;98817.33;1654391;86;22634;-84
2022/06/03 04:32:19;;;;;;;;;;;;;;;15.36;100.00;98822.99;1656118;85;26227;-86
2022/06/03 04:35:04;;;;;;;;;;;;;;;15.36;100.00;98816.88;1604040;87;24385;-86
2022/06/03 04:37:46;;;;;;;;;;;;;;;15.49;100.00;98819.67;1658534;86;20321;-85
2022/06/03 04:40:31;;;;;;;;;;;;;;;15.54;100.00;98818.50;1659712;86;25683;-85
2022/06/03 04:43:16;;;;;;;;;;;;;;;15.39;100.00;98816.61;1660897;86;21931;-88
2022/06/03 04:46:02;;;;;;;;;;;;;;;15.12;100.00;98819.73;1662066;86;26224;-84
2022/06/03 04:48:47;;;;;;;;;;;;;;;14.95;100.00;98821.11;1660214;85;24138;-86
2022/06/03 04:51:24;;;;;;;;;;;;;;;14.86;100.00;98817.92;1661100;86;20235;-85
2022/06/03 04:53:52;;;;;;;;;;;;;;;14.75;100.00;98822.38;1613153;87;24971;-84
2022/06/03 04:56:26;;;;;;;;;;;;;;;14.61;100.00;98826.13;1660811;86;22002;-84
2022/06/03 04:59:11;;;;;;;;;;;;;;;14.43;100.00;98825.80;1662708;84;26275;-88
2022/06/03 05:01:51;;;;;;;;;;;;;;;14.28;100.00;98823.51;1637260;85;25092;-88
2022/06/03 05:04:35;;;;;;;;;;;;;;;14.20;100.00;98822.30;1650589;85;20252;-88
2022/06/03 05:07:22;;;;;;;;;;;;;;;14.20;100.00;98817.04;1659910;85;24967;-83
2022/06/03 05:10:07;;;;;;;;;;;;;;;14.21;100.00;98824.46;1660527;85;22021;-84
2022/06/03 05:12:43;;;;;;;;;;;;;;;14.11;100.00;98814.30;1662040;84;25969;-88
2022/06/03 05:15:30;;;;;;;;;;;;;;;14.11;100.00;98820.41;1657477;85;24632;-89
2022/06/03 05:18:02;;;;;;;;;;;;;;;14.15;100.00;98820.52;1661865;84;20725;-85
2022/06/03 05:20:36;;;;;;;;;;;;;;;14.18;100.00;98819.45;1660165;84;24979;-85
2022/06/03 05:23:16;;;;;;;;;;;;;;;14.23;100.00;98826.03;1666074;83;22101;-83
2022/06/03 05:25:59;;;;;;;;;;;;;;;14.30;100.00;98818.94;1661650;86;25451;-82
2022/06/03 05:28:44;;;;;;;;;;;;;;;14.34;100.00;98829.13;1609661;87;24426;-83
2022/06/03 05:31:19;;;;;;;;;;;;;;;14.41;100.00;98832.97;1651358;84;20569;-82
2022/06/03 05:33:46;;;;;;;;;;;;;;;14.50;100.00;98832.26;1662590;84;25875;-83
2022/06/03 05:36:28;;;;;;;;;;;;;;;14.61;100.00;98837.52;1661650;85;21944;-84
2022/06/03 05:38:55;;;;;;;;;;;;;;;14.79;100.00;98835.66;1659507;84;26014;-82
2022/06/03 05:44:27;;;;;;;;;;;;;;;15.05;100.00;98827.30;1661252;84;24019;-88
2022/06/03 05:46:54;;;;;;;;;;;;;;;15.16;100.00;98828.25;1660531;85;25025;-83
2022/06/03 05:49:29;;;;;;;;;;;;;;;15.28;100.00;98833.80;1659297;84;21991;-84
2022/06/03 05:52:00;;;;;;;;;;;;;;;15.38;100.00;98832.11;1614149;87;26082;-84
2022/06/03 05:54:33;;;;;;;;;;;;;;;15.51;100.00;98830.09;1647033;84;25201;-83
2022/06/03 05:57:01;;;;;;;;;;;;;;;15.61;100.00;98827.55;1642748;86;20467;-82
2022/06/03 05:59:29;;;;;;;;;;;;;;;15.59;100.00;98825.06;1642546;86;25047;-83
2022/06/03 06:02:09;;;;;;;;;;;;;;;15.57;100.00;98823.03;1646604;86;22026;-89
2022/06/03 06:04:46;;;;;;;;;;;;;;;15.56;100.00;98827.10;1645970;85;25990;-88
2022/06/03 06:07:13;;;;;;;;;;;;;;;15.57;100.00;98828.30;1648171;85;25178;-84
2022/06/03 06:09:57;;;;;;;;;;;;;;;15.60;100.00;98827.22;1638231;86;20258;-88
2022/06/03 06:12:30;;;;;;;;;;;;;;;15.61;100.00;98833.66;1581600;89;25148;-88
2022/06/03 06:15:02;;;;;;;;;;;;;;;15.64;100.00;98828.15;1649052;86;22077;-83
2022/06/03 06:17:46;;;;;;;;;;;;;;;15.71;100.00;98820.56;1636358;86;26706;-85
2022/06/03 06:20:27;;;;;;;;;;;;;;;15.77;100.00;98822.17;1643247;86;24623;-83
2022/06/03 06:22:55;;;;;;;;;;;;;;;15.84;100.00;98818.05;1642161;86;20677;-85
2022/06/03 06:25:26;;;;;;;;;;;;;;;15.88;100.00;98815.50;1649032;86;25842;-84
2022/06/03 06:28:03;;;;;;;;;;;;;;;15.90;100.00;98816.69;1643970;86;22066;-84
2022/06/03 06:30:46;;;;;;;;;;;;;;;15.93;100.00;98815.09;1639125;86;26110;-89
2022/06/03 06:33:29;;;;;;;;;;;;;;;15.95;100.00;98813.17;1648151;86;24532;-85
2022/06/03 06:36:00;;;;;;;;;;;;;;;15.98;100.00;98812.09;1642434;86;20422;-83
2022/06/03 06:38:39;;;;;;;;;;;;;;;16.08;100.00;98818.25;1625945;86;20496;-84
2022/06/03 06:41:25;;;;;;;;;;;;;;;16.14;100.00;98817.24;1646640;86;21969;-84
2022/06/03 06:43:53;;;;;;;;;;;;;;;16.18;100.00;98818.64;1639794;86;26220;-85
2022/06/03 06:46:21;;;;;;;;;;;;;;;16.24;100.00;98813.31;1643822;86;24533;-83
2022/06/03 06:49:05;;;;;;;;;;;;;;;16.30;100.00;98812.78;1648715;86;20188;-88
2022/06/03 06:51:33;;;;;;;;;;;;;;;16.41;100.00;98811.36;1643303;86;24990;-82
2022/06/03 06:54:02;;;;;;;;;;;;;;;16.56;100.00;98817.09;1650488;85;21999;-84
2022/06/03 06:56:30;;;;;;;;;;;;;;;16.63;100.00;98815.14;1643775;86;26010;-84
2022/06/03 06:59:01;;;;;;;;;;;;;;;16.72;100.00;98814.31;1661548;84;24537;-88
2022/06/03 07:01:28;;;;;;;;;;;;;;;16.81;100.00;98810.00;1660841;85;20418;-84
2022/06/03 07:03:56;;;;;;;;;;;;;;;16.92;100.00;98805.91;1660721;85;24968;-84
2022/06/03 07:06:42;;;;;;;;;;;;;;;17.01;100.00;98806.42;1662177;85;22070;-83
2022/06/03 07:09:16;;;;;;;;;;;;;;;17.06;100.00;98806.84;1662665;84;26151;-88
2022/06/03 07:11:47;;;;;;;;;;;;;;;17.13;100.00;98801.80;1659317;84;24531;-85
2022/06/03 07:14:17;;;;;;;;;;;;;;;17.19;100.00;98797.77;1660528;85;20247;-85
2022/06/03 07:19:49;;;;;;;;;;;;;;;17.45;100.00;98793.11;1663489;84;22032;-83
2022/06/03 07:22:17;;;;;;;;;;;;;;;17.57;100.00;98793.27;1662288;85;26237;-84
2022/06/03 07:24:48;;;;;;;;;;;;;;;17.67;100.00;98793.31;1661521;84;24392;-84
2022/06/03 07:27:16;;;;;;;;;;;;;;;17.82;100.00;98786.58;1661680;85;20206;-88
2022/06/03 07:29:43;;;;;;;;;;;;;;;17.91;100.00;98784.38;1660951;85;25021;-88
2022/06/03 07:32:26;;;;;;;;;;;;;;;18.02;100.00;98783.84;1659216;84;22626;-88
2022/06/03 07:35:04;;;;;;;;;;;;;;;18.15;100.00;98785.69;1662241;85;26917;-85
2022/06/03 07:37:38;;;;;;;;;;;;;;;18.26;100.00;98775.73;1650782;85;23933;-84
2022/06/03 07:40:11;;;;;;;;;;;;;;;18.37;100.00;98777.35;1634755;86;20364;-83
2022/06/03 07:42:48;;;;;;;;;;;;;;;18.46;100.00;98780.92;1606362;87;25033;-85
2022/06/03 07:45:26;;;;;;;;;;;;;;;18.58;100.00;98786.40;1607606;88;21716;-83
2022/06/03 07:47:54;;;;;;;;;;;;;;;18.72;100.00;98781.41;1583400;89;26214;-85
2022/06/03 07:50:21;;;;;;;;;;;;;;;18.86;100.00;98780.08;1606811;89;24111;-88
2022/06/03 07:52:54;;;;;;;;;;;;;;;19.00;100.00;98781.34;1608098;87;20226;-89
2022/06/03 07:55:21;;;;;;;;;;;;;;;19.12;100.00;98779.65;1650875;84;25861;-84
2022/06/03 07:57:49;;;;;;;;;;;;;;;19.26;100.00;98770.30;1662666;84;21892;-83
2022/06/03 08:00:17;;;;;;;;;;;;;;;19.35;100.00;98772.05;1662605;84;26317;-83
2022/06/03 08:02:42;;;;;;;;;;;;;;;19.43;100.00;98776.08;1662693;84;24513;-84
2022/06/03 08:05:10;;;;;;;;;;;;;;;19.51;100.00;98776.19;1660572;84;20214;-88
2022/06/03 08:13:11;;;;;;;;;;;;;;;19.83;100.00;98768.92;1661401;84;25748;-84
2022/06/03 08:15:39;;;;;;;;;;;;;;;19.94;100.00;98775.78;1661877;84;24282;-85
2022/06/03 08:18:06;;;;;;;;;;;;;;;20.01;100.00;98772.84;1660346;84;20222;-85
2022/06/03 08:20:40;;;;;;;;;;;;;;;20.08;100.00;98764.55;1663077;85;25104;-84
2022/06/03 08:23:08;;;;;;;;;;;;;;;20.22;100.00;98771.11;1662778;85;22012;-84
2022/06/03 08:25:36;;;;;;;;;;;;;;;20.30;100.00;98774.62;1660353;84;26064;-84
2022/06/03 08:28:02;;;;;;;;;;;;;;;20.38;100.00;98769.88;1662333;84;25208;-83
2022/06/03 08:30:28;;;;;;;;;;;;;;;20.41;100.00;98762.89;1662483;84;20473;-84
2022/06/03 08:32:59;;;;;;;;;;;;;;;20.46;100.00;98758.75;1662452;84;24994;-83
2022/06/03 08:35:27;;;;;;;;;;;;;;;20.48;100.00;98764.41;1661620;84;22561;-88
2022/06/03 08:37:58;;;;;;;;;;;;;;;20.55;99.98;98759.63;1660580;84;26054;-88
2022/06/03 08:40:25;;;;;;;;;;;;;;;20.60;98.45;98760.47;1662398;84;24659;-89
2022/06/03 08:42:53;;;;;;;;;;;;;;;20.65;97.16;98757.66;1661581;84;20250;-83
2022/06/03 08:45:33;;;;;;;;;;;;;;;20.75;96.08;98766.81;1660224;86;25667;-82
2022/06/03 08:48:01;;;;;;;;;;;;;;;20.85;95.24;98766.16;1661629;84;22147;-83
2022/06/03 08:50:46;;;;;;;;;;;;;;;20.95;94.32;98768.16;1662294;84;26753;-83
2022/06/03 08:53:31;;;;;;;;;;;;;;;21.04;93.57;98765.87;1660562;84;24545;-83
2022/06/03 08:56:02;;;;;;;;;;;;;;;21.10;92.35;98765.21;1662031;84;20179;-84
2022/06/03 08:58:49;;;;;;;;;;;;;;;21.22;91.69;98753.77;1653565;84;24900;-88
2022/06/03 09:01:33;;;;;;;;;;;;;;;21.27;90.67;98756.23;1660382;85;22082;-82
2022/06/03 09:04:19;;;;;;;;;;;;;;;21.27;89.09;98758.09;1662187;84;26718;-87
2022/06/03 09:06:53;;;;;;;;;;;;;;;21.27;87.88;98752.24;1661880;84;25173;-84
2022/06/03 09:09:21;;;;;;;;;;;;;;;21.35;86.91;98757.23;1662394;84;21409;-88
2022/06/03 09:11:49;;;;;;;;;;;;;;;21.41;86.14;98753.91;1661676;84;25056;-84
2022/06/03 09:14:17;;;;;;;;;;;;;;;21.46;85.32;98748.41;1662564;86;21993;-88
2022/06/03 09:16:51;;;;;;;;;;;;;;;21.51;84.24;98748.73;1661489;84;25984;-84
2022/06/03 09:19:20;;;;;;;;;;;;;;;21.55;83.18;98756.72;1661449;84;24570;-88
2022/06/03 09:21:51;;;;;;;;;;;;;;;21.52;81.67;98750.91;1662306;84;20230;-88
2022/06/03 09:24:23;;;;;;;;;;;;;;;21.53;80.41;98745.91;1660732;84;24942;-82
2022/06/03 09:26:50;;;;;;;;;;;;;;;21.59;79.69;98747.91;1661940;84;21945;-84
2022/06/03 09:29:16;;;;;;;;;;;;;;;21.64;79.15;98740.23;1662304;84;26179;-84
2022/06/03 09:31:47;;;;;;;;;;;;;;;21.79;79.37;98737.20;1661391;86;24514;-87
2022/06/03 09:34:14;;;;;;;;;;;;;;;21.93;79.35;98739.14;1661425;84;20492;-83
2022/06/03 09:36:40;;;;;;;;;;;;;;;22.02;78.60;98744.83;1661826;86;24966;-83
2022/06/03 09:39:08;;;;;;;;;;;;;;;22.01;77.52;98741.83;1662968;84;22056;-84
2022/06/03 09:41:36;;;;;;;;;;;;;;;22.08;77.12;98740.64;1661964;84;25972;-88
2022/06/03 09:44:03;;;;;;;;;;;;;;;22.09;76.09;98740.45;1662001;84;25090;-88
2022/06/03 09:46:30;;;;;;;;;;;;;;;22.17;75.71;98752.09;1660744;84;20638;-84
2022/06/03 09:48:56;;;;;;;;;;;;;;;22.22;75.04;98748.41;1661830;84;25070;-88
2022/06/03 09:54:09;;;;;;;;;;;;;;;22.32;74.02;98752.53;1660603;84;26268;-85
2022/06/03 09:56:37;;;;;;;;;;;;;;;22.32;72.77;98750.36;1638648;86;24614;-83
2022/06/03 09:59:03;;;;;;;;;;;;;;;22.34;71.68;98745.69;1635014;86;20231;-83
2022/06/03 10:01:29;;;;;;;;;;;;;;;22.41;71.46;98744.00;1638937;86;24980;-84
2022/06/03 10:03:57;;;;;;;;;;;;;;;22.54;71.39;98749.08;1634364;87;22029;-84
2022/06/03 10:14:39;;;;;;;;;;;;;;;22.72;66.51;98738.67;1635797;86;24701;-84
2022/06/03 10:17:06;;;;;;;;;;;;;;;22.68;64.96;98739.52;1638553;87;22628;-85
2022/06/03 10:19:32;;;;;;;;;;;;;;;22.73;64.14;98736.34;1637501;86;26856;-85
2022/06/03 10:21:59;;;;;;;;;;;;;;;22.78;63.36;98735.30;1634197;86;20259;-83
2022/06/03 10:24:32;;;;;;;;;;;;;;;22.75;62.11;98733.80;1635413;87;20284;-84
2022/06/03 10:27:00;;;;;;;;;;;;;;;22.83;61.34;98728.93;1633630;87;25031;-83
2022/06/03 10:29:27;;;;;;;;;;;;;;;22.87;60.37;98722.22;1635795;87;22106;-89
2022/06/03 10:31:54;;;;;;;;;;;;;;;22.94;59.99;98716.50;1634313;87;26220;-85
2022/06/03 10:34:27;;;;;;;;;;;;;;;22.96;59.05;98709.16;1635759;87;24445;-85
2022/06/03 10:36:53;;;;;;;;;;;;;;;23.01;58.49;98717.96;1635496;86;20228;-89
2022/06/03 10:39:23;;;;;;;;;;;;;;;23.03;57.52;98717.26;1634144;86;25956;-85
2022/06/03 10:41:50;;;;;;;;;;;;;;;23.05;56.51;98717.92;1616317;86;21981;-89
2022/06/03 10:44:18;;;;;;;;;;;;;;;23.09;55.65;98717.88;1632043;86;26018;-89
2022/06/03 10:46:53;;;;;;;;;;;;;;;23.14;55.02;98721.67;1636574;86;24383;-84
2022/06/03 10:49:27;;;;;;;;;;;;;;;23.22;54.60;98716.28;1636309;87;20235;-85
2022/06/03 11:02:54;;;;;;;;;;;;;;;23.55;52.29;98711.48;1636834;87;20565;-83
2022/06/03 11:05:22;;;;;;;;;;;;;;;23.57;51.68;98709.95;1615666;86;25020;-85
2022/06/03 11:07:59;;;;;;;;;;;;;;;23.59;51.21;98699.41;1637641;86;22733;-85
2022/06/03 11:10:27;;;;;;;;;;;;;;;23.65;50.83;98704.03;1631847;86;26159;-85
2022/06/03 11:12:55;;;;;;;;;;;;;;;23.73;50.65;98697.24;1635016;86;24314;-89
2022/06/03 11:15:31;;;;;;;;;;;;;;;23.82;50.39;98698.00;1636337;86;20303;-89
2022/06/03 11:17:53;;;;;;;;;;;;;;;23.91;50.05;98694.70;1634372;87;24974;-85
2022/06/03 11:20:21;;;;;;;;;;;;;;;23.87;49.22;98692.09;1637414;86;20257;-89
2022/06/03 11:22:47;;;;;;;;;;;;;;;23.83;48.68;98695.66;1632327;86;26117;-89
2022/06/03 11:25:15;;;;;;;;;;;;;;;23.91;48.61;98694.70;1635041;87;20905;-85
2022/06/03 11:27:56;;;;;;;;;;;;;;;23.96;48.35;98694.48;1637049;86;20232;-85
2022/06/03 11:30:47;;;;;;;;;;;;;;;24.01;48.16;98687.23;1639205;86;25031;-85
2022/06/03 11:33:15;;;;;;;;;;;;;;;24.13;48.24;98689.75;1636993;85;22877;-83
2022/06/03 11:35:43;;;;;;;;;;;;;;;24.30;48.44;98683.72;1637527;86;26056;-84
2022/06/03 11:38:10;;;;;;;;;;;;;;;24.42;48.33;98679.03;1616938;87;25330;-85
2022/06/03 11:40:41;;;;;;;;;;;;;;;24.47;47.87;98673.94;1637474;87;20217;-85
2022/06/03 11:43:09;;;;;;;;;;;;;;;24.59;47.70;98663.57;1634898;86;25069;-85
2022/06/03 11:45:36;;;;;;;;;;;;;;;24.54;46.81;98655.28;1635302;85;22076;-85
2022/06/03 11:48:16;;;;;;;;;;;;;;;24.41;46.06;98651.95;1636899;86;58211;-83
2022/06/03 11:50:43;;;;;;;;;;;;;;;24.39;45.70;98647.29;1635027;86;24529;-83
2022/06/03 11:53:09;;;;;;;;;;;;;;;24.43;45.49;98651.27;1636230;86;20225;-89
2022/06/03 11:55:38;;;;;;;;;;;;;;;24.44;45.22;98645.37;1644355;85;24999;-84
2022/06/03 11:58:05;;;;;;;;;;;;;;;24.41;44.83;98641.75;1662013;84;21988;-89
2022/06/03 12:00:35;;;;;;;1.22;1.00;;;;;;;24.44;44.73;98642.19;1654957;84;26064;-89
2022/06/03 12:03:17;;;;;;;1.20;1.00;;;;;;;24.46;44.43;98632.64;1656883;85;28157;-84
2022/06/03 12:05:48;;;;;;;;;;;;;;;24.51;44.14;98623.03;1660845;84;28085;-89
2022/06/03 12:08:21;;;;;;;2.10;1.10;;;;;;;24.49;43.63;98618.91;1655563;85;25105;-84
2022/06/03 12:14:28;;;;;;;2.92;1.15;;;;;;;24.40;42.99;98618.18;1655932;84;28010;-84
2022/06/03 12:17:01;;;;;;;1.35;1.05;;;;;;;24.40;42.75;98618.69;1655892;84;28211;-84
2022/06/03 12:19:43;;;;;;;1.02;0.93;;;;;;;24.45;42.80;98608.24;1621773;86;28199;-83
2022/06/03 12:22:31;;;;;;;1.35;1.00;;;;;;;24.63;43.10;98609.14;1656734;84;28040;-83
2022/06/03 12:24:59;;;;;;;2.30;0.78;;;;;;;24.67;43.01;98603.71;1654472;85;28078;-83
2022/06/03 12:27:38;;;;;;;0.85;0.80;;;;;;;24.70;42.81;98601.50;1656710;84;28162;-84
2022/06/03 12:30:18;;;;;;;0.88;0.88;;;;;;;24.70;42.71;98600.16;1656286;85;28104;-88
2022/06/03 12:32:52;;;;;;;1.02;0.93;;;;;;;24.72;42.43;98593.25;1654679;83;28139;-85
2022/06/03 12:35:50;;;;;;;1.77;1.00;;;;;;;24.87;42.55;98590.00;1646468;84;28135;-84
2022/06/03 12:38:23;;;;;;;1.30;1.00;;;;;;;24.92;42.52;98596.46;1642391;85;28042;-85
2022/06/03 12:40:52;;;;;;;1.30;1.20;;;;;;;24.96;42.37;98595.05;1655789;85;28203;-85
2022/06/03 12:43:25;;;;;;;1.17;1.07;;;;;;;25.09;42.48;98594.32;1655493;84;28157;-83
2022/06/03 12:46:07;;;;;;;1.98;1.10;;;;;;;25.11;42.27;98590.92;1628516;86;28163;-83
2022/06/03 12:48:48;;;;;;;2.77;1.20;;;;;;;25.21;42.29;98587.88;1658007;84;28068;-89
2022/06/03 12:51:28;;;;;;;1.60;1.10;;;;;;;25.22;42.03;98581.51;1656644;84;21942;-83
2022/06/03 12:54:01;;;;;;;1.77;1.00;;;;;;;25.14;41.74;98577.16;1656145;84;33654;-85
2022/06/03 12:56:35;;;;;;;2.62;1.20;;;;;;;25.10;41.70;98573.19;1653671;84;28094;-83
2022/06/03 12:59:11;;;;;;;1.35;1.00;;;;;;;24.97;41.28;98566.42;1646448;86;28164;-83
2022/06/03 13:01:44;;;;;;;0.98;0.88;;;;;;;24.83;40.97;98561.94;1645643;86;28073;-84
2022/06/03 13:04:34;;;;;;;2.45;1.00;;;;;;;24.78;40.82;98558.52;1650632;86;28007;-84
2022/06/03 13:07:12;;;;;;;1.07;0.98;;;;;;;24.89;41.04;98555.84;1651908;85;28084;-83
2022/06/03 13:09:52;;;;;;;1.02;0.93;;;;;;;24.95;40.75;98554.55;1656565;83;28164;-89
2022/06/03 13:12:37;;;;;;;1.98;1.00;;;;;;;24.98;40.80;98541.30;1648247;86;28090;-89
2022/06/03 13:15:25;;;;;;;1.10;1.00;;;;;;;24.95;40.55;98540.34;1651153;86;28141;-85
2022/06/03 13:20:43;;;;;;;1.60;0.88;;;;;;;25.04;40.45;98541.03;1650654;86;28092;-85
2022/06/03 13:23:40;;;;;;;1.45;0.90;;;;;;;25.15;40.43;98537.80;1651011;86;28081;-89
2022/06/03 13:26:25;;;;;;;1.05;0.95;;;;;;;25.17;40.17;98533.88;1649760;86;28186;-89
2022/06/03 13:28:56;;;;;;;2.17;0.62;;;;;;;25.23;40.14;98534.44;1648200;86;28113;-89
2022/06/03 13:31:27;;;;;;;0.78;0.78;;;;;;;25.25;39.96;98536.42;1649022;86;28178;-83
2022/06/03 13:34:10;;;;;;;1.35;1.07;;;;;;;25.14;39.48;98538.31;1649957;86;26276;-89
2022/06/03 13:36:49;;;;;;;1.62;0.93;;;;;;;25.02;39.07;98535.03;1652564;86;28090;-89
2022/06/03 13:39:31;;;;;;;1.00;1.00;;;;;;;24.93;38.73;98530.32;1649650;86;28137;-88
2022/06/03 13:45:04;;;;;;;0.90;0.90;;;;;;;24.96;38.59;98529.95;1623682;86;28172;-89
2022/06/03 13:47:34;;;;;;;2.05;1.10;;;;;;;25.00;38.68;98519.15;1624289;87;28099;-85
2022/06/03 13:50:19;;;;;;;1.20;0.88;;;;;;;25.09;38.83;98525.20;1624553;87;28218;-85
2022/06/03 13:52:55;;;;;;;1.65;0.93;;;;;;;25.18;38.92;98522.66;1649122;86;28129;-85